Time;durP1;ratioP1;P1;durP2;ratioP2;P2;SDS_P1;SDS_P2;PMS_P1;PMS_P2;Temp;Humidity;BMP_temperature;BMP_pressure;BME280_temperature;BME280_humidity;BME280_pressure;Samples;Min_cycle;Max_cycle;Signal;HPM_P1;HPM_P2
2024/04/13 00:02:02;;;;;;;5.90;1.88;;;14.00;99.90;;;;;;5475198;26;20001;-92
2024/04/13 00:04:30;;;;;;;7.65;2.03;;;13.90;99.90;;;;;;5421641;26;20027;-91
2024/04/13 00:06:57;;;;;;;8.20;3.22;;;13.90;99.90;;;;;;5416047;26;20025;-92
2024/04/13 00:09:24;;;;;;;9.50;3.33;;;14.00;99.90;;;;;;5414545;26;20006;-91
2024/04/13 00:11:50;;;;;;;7.80;3.42;;;14.00;99.90;;;;;;5417010;26;19999;-91
2024/04/13 00:14:17;;;;;;;8.63;1.80;;;14.00;99.90;;;;;;5447105;26;20034;-91
2024/04/13 00:16:44;;;;;;;7.40;2.38;;;13.90;99.90;;;;;;5415510;26;20341;-91
2024/04/13 00:19:11;;;;;;;8.60;3.60;;;13.90;99.90;;;;;;5424719;26;20526;-92
2024/04/13 00:21:39;;;;;;;8.95;3.88;;;13.90;99.90;;;;;;5415843;26;20389;-92
2024/04/13 00:24:06;;;;;;;8.00;3.92;;;13.90;99.90;;;;;;5414965;26;20003;-92
2024/04/13 00:26:34;;;;;;;6.38;2.05;;;13.90;99.90;;;;;;5386015;26;20002;-92
2024/04/13 00:29:05;;;;;;;8.27;3.78;;;13.80;99.90;;;;;;5445050;26;20013;-92
2024/04/13 00:31:32;;;;;;;5.05;2.05;;;13.80;99.90;;;;;;5445330;26;20472;-91
2024/04/13 00:34:01;;;;;;;7.80;2.22;;;13.80;99.90;;;;;;5442740;26;20234;-91
2024/04/13 00:36:28;;;;;;;8.13;4.00;;;13.70;99.90;;;;;;5444599;26;20009;-92
2024/04/13 00:38:55;;;;;;;9.50;4.55;;;13.70;99.90;;;;;;5414843;26;20003;-91
2024/04/13 00:41:22;;;;;;;7.72;2.17;;;13.70;99.90;;;;;;5417790;26;19998;-92
2024/04/13 00:43:50;;;;;;;8.95;4.18;;;13.60;99.90;;;;;;5445606;26;20018;-91
2024/04/13 00:46:23;;;;;;;7.30;2.33;;;13.70;99.90;;;;;;5416361;26;19995;-91
2024/04/13 00:48:52;;;;;;;8.20;2.40;;;13.60;99.90;;;;;;5431152;26;20017;-91
2024/04/13 00:51:20;;;;;;;8.98;4.20;;;13.50;99.90;;;;;;5411560;26;20021;-92
2024/04/13 00:53:47;;;;;;;8.70;2.50;;;13.60;99.90;;;;;;5412514;26;20017;-92
2024/04/13 00:56:14;;;;;;;5.95;2.17;;;13.50;99.90;;;;;;5413360;26;20009;-92
2024/04/13 00:58:42;;;;;;;7.43;2.30;;;13.40;99.90;;;;;;5410973;26;19995;-91
2024/04/13 01:01:10;;;;;;;5.32;1.90;;;13.40;99.90;;;;;;5425419;26;20003;-92
2024/04/13 01:03:38;;;;;;;7.18;2.55;;;13.40;99.90;;;;;;5417055;26;20013;-91
2024/04/13 01:06:08;;;;;;;8.45;4.18;;;13.30;99.90;;;;;;5414948;26;19999;-91
2024/04/13 01:08:35;;;;;;;5.70;2.17;;;13.40;99.90;;;;;;5429910;26;20355;-91
2024/04/13 01:11:02;;;;;;;8.45;2.67;;;13.30;99.90;;;;;;5425972;26;20002;-92
2024/04/13 01:13:29;;;;;;;8.82;4.75;;;13.30;99.90;;;;;;5412961;26;20706;-92
2024/04/13 01:15:58;;;;;;;6.80;2.50;;;13.30;99.90;;;;;;5413259;26;20009;-91
2024/04/13 01:18:25;;;;;;;8.60;4.50;;;13.30;99.90;;;;;;5439084;26;20027;-91
2024/04/13 01:20:52;;;;;;;7.00;2.35;;;13.30;99.90;;;;;;5429011;26;20741;-91
2024/04/13 01:23:21;;;;;;;7.97;2.25;;;13.20;99.90;;;;;;5413560;26;20468;-91
2024/04/13 01:25:50;;;;;;;10.55;2.88;;;13.20;99.90;;;;;;5418782;26;20013;-91
2024/04/13 01:28:17;;;;;;;5.53;2.15;;;13.10;99.90;;;;;;5412700;26;19999;-91
2024/04/13 01:30:44;;;;;;;6.95;2.55;;;13.10;99.90;;;;;;5414951;26;19995;-91
2024/04/13 01:33:11;;;;;;;5.10;1.90;;;13.10;99.90;;;;;;5438759;26;19999;-90
2024/04/13 01:35:38;;;;;;;6.30;1.60;;;13.10;99.90;;;;;;5420864;26;20716;-91
2024/04/13 01:38:05;;;;;;;8.23;5.00;;;13.10;99.90;;;;;;5445558;26;20019;-90
2024/04/13 01:40:32;;;;;;;8.95;2.33;;;13.20;99.90;;;;;;5416241;26;20007;-91
2024/04/13 01:42:59;;;;;;;9.07;2.72;;;13.20;99.90;;;;;;5474404;26;20009;-92
2024/04/13 01:45:26;;;;;;;6.45;2.15;;;13.10;99.90;;;;;;5432139;26;20005;-92
2024/04/13 01:47:53;;;;;;;8.48;2.33;;;13.10;99.90;;;;;;5444058;26;20490;-92
2024/04/13 01:50:20;;;;;;;13.38;4.82;;;13.00;99.90;;;;;;5413425;26;20002;-91
2024/04/13 01:52:47;;;;;;;6.82;2.50;;;13.10;99.90;;;;;;5413066;26;21913;-92
2024/04/13 01:55:14;;;;;;;8.00;2.38;;;13.10;99.90;;;;;;5412656;26;20016;-91
2024/04/13 01:57:41;;;;;;;6.18;2.60;;;13.10;99.90;;;;;;5411504;26;20338;-91
2024/04/13 02:00:08;;;;;;;7.85;2.20;;;13.00;99.90;;;;;;5412791;26;19995;-91
2024/04/13 02:02:35;;;;;;;9.18;2.72;;;12.90;99.90;;;;;;5414165;26;20005;-91
2024/04/13 02:05:02;;;;;;;7.53;2.58;;;12.90;99.90;;;;;;5445868;26;20028;-90
2024/04/13 02:07:29;;;;;;;6.20;2.28;;;12.90;99.90;;;;;;5445562;26;20485;-91
2024/04/13 02:09:56;;;;;;;5.95;2.03;;;12.80;99.90;;;;;;5412885;26;20010;-91
2024/04/13 02:12:23;;;;;;;7.85;2.50;;;12.90;99.90;;;;;;5412923;26;19999;-92
2024/04/13 02:14:49;;;;;;;7.57;2.80;;;12.80;99.90;;;;;;5410955;26;20357;-92
2024/04/13 02:17:16;;;;;;;8.85;2.88;;;12.80;99.90;;;;;;5444355;26;20502;-91
2024/04/13 02:19:44;;;;;;;6.63;2.17;;;12.80;99.90;;;;;;5443704;26;20490;-91
2024/04/13 02:22:11;;;;;;;6.95;2.58;;;12.90;99.90;;;;;;5415410;26;20003;-91
2024/04/13 02:24:39;;;;;;;9.68;4.60;;;12.80;99.90;;;;;;5444494;26;20034;-92
2024/04/13 02:27:06;;;;;;;7.88;2.42;;;12.90;99.90;;;;;;5444341;26;19999;-91
2024/04/13 02:29:33;;;;;;;6.80;2.47;;;12.90;99.90;;;;;;5417488;26;19994;-91
2024/04/13 02:32:00;;;;;;;6.70;2.47;;;12.90;99.90;;;;;;5443724;26;19995;-91
2024/04/13 02:34:28;;;;;;;9.02;4.60;;;12.90;99.90;;;;;;5444732;26;20468;-91
2024/04/13 02:36:55;;;;;;;8.95;2.78;;;12.90;99.90;;;;;;5412926;26;20005;-91
2024/04/13 02:39:21;;;;;;;7.45;2.75;;;12.90;99.90;;;;;;5411324;26;19999;-91
2024/04/13 02:41:48;;;;;;;8.95;4.90;;;12.90;99.90;;;;;;5411810;26;19994;-91
2024/04/13 02:44:16;;;;;;;6.50;2.28;;;12.90;99.90;;;;;;5406462;26;20017;-91
2024/04/13 02:46:42;;;;;;;5.50;2.13;;;12.90;99.90;;;;;;5441151;26;20046;-91
2024/04/13 02:49:10;;;;;;;9.00;4.32;;;12.80;99.90;;;;;;5417477;26;19994;-92
2024/04/13 02:51:36;;;;;;;6.38;2.25;;;12.90;99.90;;;;;;5411049;26;20069;-91
2024/04/13 02:54:04;;;;;;;5.45;2.00;;;12.80;99.90;;;;;;5442181;26;20016;-91
2024/04/13 02:56:33;;;;;;;6.75;2.33;;;12.70;99.90;;;;;;5442069;26;20500;-90
2024/04/13 02:59:00;;;;;;;7.18;2.22;;;12.70;99.90;;;;;;5471254;26;19995;-91
2024/04/13 03:01:27;;;;;;;9.07;4.85;;;12.70;99.90;;;;;;5417842;26;20327;-91
2024/04/13 03:03:54;;;;;;;7.85;4.53;;;12.70;99.90;;;;;;5411144;26;20030;-91
2024/04/13 03:06:21;;;;;;;8.00;2.20;;;12.80;99.90;;;;;;5442627;26;20027;-91
2024/04/13 03:08:50;;;;;;;5.13;1.90;;;12.80;99.90;;;;;;5412504;26;20003;-91
2024/04/13 03:11:17;;;;;;;8.45;4.03;;;12.70;99.90;;;;;;5410663;26;20100;-92
2024/04/13 03:13:49;;;;;;;9.45;4.35;;;12.70;99.90;;;;;;5412076;26;19999;-91
2024/04/13 03:16:16;;;;;;;6.80;2.60;;;12.70;99.90;;;;;;5443805;26;20038;-91
2024/04/13 03:18:46;;;;;;;9.05;4.43;;;12.70;99.90;;;;;;5411562;26;19999;-91
2024/04/13 03:21:13;;;;;;;5.75;1.95;;;12.60;99.90;;;;;;5442444;26;20047;-91
2024/04/13 03:23:41;;;;;;;7.45;2.55;;;12.60;99.90;;;;;;5409990;26;20466;-92
2024/04/13 03:26:08;;;;;;;6.35;2.55;;;12.50;99.90;;;;;;5443707;26;20035;-92
2024/04/13 03:28:35;;;;;;;7.05;2.45;;;12.50;99.90;;;;;;5421861;26;20473;-91
2024/04/13 03:31:03;;;;;;;8.00;3.10;;;12.40;99.90;;;;;;5419888;26;20025;-91
2024/04/13 03:33:31;;;;;;;6.95;2.33;;;12.40;99.90;;;;;;5444628;26;20042;-91
2024/04/13 03:36:04;;;;;;;8.40;2.65;;;12.30;99.90;;;;;;5419226;26;19995;-91
2024/04/13 03:38:31;;;;;;;8.30;2.40;;;12.30;99.90;;;;;;5417670;26;20034;-91
2024/04/13 03:41:07;;;;;;;6.68;2.22;;;12.20;99.90;;;;;;5423547;26;19995;-90
2024/04/13 03:43:36;;;;;;;7.75;4.10;;;12.20;99.90;;;;;;5445082;26;20069;-91
2024/04/13 03:46:04;;;;;;;8.98;1.98;;;12.20;99.90;;;;;;5418497;26;19999;-91
2024/04/13 03:48:31;;;;;;;6.95;2.50;;;12.20;99.90;;;;;;5447380;26;20766;-91
2024/04/13 03:51:01;;;;;;;7.10;2.38;;;12.10;99.90;;;;;;5413117;26;20010;-91
2024/04/13 03:53:28;;;;;;;7.32;3.13;;;12.10;99.90;;;;;;5446982;26;20019;-91
2024/04/13 03:55:55;;;;;;;6.75;2.15;;;12.10;99.90;;;;;;5411968;26;20002;-91
2024/04/13 03:58:22;;;;;;;8.35;2.00;;;12.10;99.90;;;;;;5414608;26;20007;-91
2024/04/13 04:00:48;;;;;;;7.28;2.10;;;12.00;99.90;;;;;;5414380;26;20005;-91
2024/04/13 04:03:16;;;;;;;8.48;4.18;;;12.00;99.90;;;;;;5415741;26;19998;-92
2024/04/13 04:05:43;;;;;;;6.72;1.88;;;12.00;99.90;;;;;;5416187;26;20009;-90
2024/04/13 04:08:10;;;;;;;6.97;2.40;;;12.00;99.90;;;;;;5415827;26;20365;-91
2024/04/13 04:10:37;;;;;;;7.72;2.38;;;11.90;99.90;;;;;;5414618;26;19995;-91
2024/04/13 04:13:05;;;;;;;6.43;2.40;;;11.90;99.90;;;;;;5423341;26;19999;-91
2024/04/13 04:15:33;;;;;;;7.32;2.55;;;11.90;99.90;;;;;;5415827;26;20361;-90
2024/04/13 04:18:03;;;;;;;8.98;4.75;;;11.90;99.90;;;;;;5415536;26;19995;-91
2024/04/13 04:20:34;;;;;;;6.38;2.20;;;12.00;99.90;;;;;;5421912;26;19995;-91
2024/04/13 04:23:01;;;;;;;5.30;1.50;;;12.00;99.90;;;;;;5446586;26;20475;-91
2024/04/13 04:25:31;;;;;;;9.43;4.50;;;12.00;99.90;;;;;;5420715;26;19994;-92
2024/04/13 04:27:59;;;;;;;5.65;2.00;;;12.10;99.90;;;;;;5446843;26;20027;-90
2024/04/13 04:30:26;;;;;;;6.43;2.40;;;12.00;99.90;;;;;;5445993;26;20013;-90
2024/04/13 04:32:53;;;;;;;5.40;1.85;;;12.00;99.90;;;;;;5427349;26;19999;-90
2024/04/13 04:35:20;;;;;;;10.23;1.88;;;11.90;99.90;;;;;;5446941;26;19995;-90
2024/04/13 04:37:47;;;;;;;11.13;4.60;;;11.80;99.90;;;;;;5422391;26;20575;-91
2024/04/13 04:40:14;;;;;;;6.65;1.95;;;11.80;99.90;;;;;;5417340;26;20017;-91
2024/04/13 04:42:41;;;;;;;6.28;2.22;;;11.70;99.90;;;;;;5423734;26;20013;-91
2024/04/13 04:45:08;;;;;;;8.60;3.92;;;11.70;99.90;;;;;;5446905;26;20513;-91
2024/04/13 04:47:35;;;;;;;7.03;2.33;;;11.70;99.90;;;;;;5419892;26;20031;-91
2024/04/13 04:50:03;;;;;;;7.28;2.13;;;11.60;99.90;;;;;;5471104;26;20013;-91
2024/04/13 04:52:30;;;;;;;5.22;1.70;;;11.60;99.90;;;;;;5424033;26;20749;-91
2024/04/13 04:55:00;;;;;;;7.60;2.35;;;11.50;99.90;;;;;;5474949;26;20002;-91
2024/04/13 04:57:28;;;;;;;6.22;1.83;;;11.50;99.90;;;;;;5429479;26;19999;-90
2024/04/13 04:59:55;;;;;;;7.20;2.13;;;11.50;99.90;;;;;;5445817;26;20503;-91
2024/04/13 05:02:24;;;;;;;8.18;2.10;;;11.50;99.90;;;;;;5414790;26;20013;-91
2024/04/13 05:04:50;;;;;;;4.72;1.83;;;11.50;99.90;;;;;;5445989;26;19995;-91
2024/04/13 05:07:17;;;;;;;5.63;2.17;;;11.50;99.90;;;;;;5442525;26;20023;-91
2024/04/13 05:09:44;;;;;;;7.32;2.00;;;11.50;99.90;;;;;;5445061;26;20050;-91
2024/04/13 05:12:11;;;;;;;6.10;2.05;;;11.50;99.90;;;;;;5413233;26;20010;-90
2024/04/13 05:14:38;;;;;;;6.72;2.40;;;11.50;99.90;;;;;;5417362;26;20013;-92
2024/04/13 05:17:05;;;;;;;6.10;2.10;;;11.50;99.90;;;;;;5425820;26;20002;-91
2024/04/13 05:19:32;;;;;;;5.65;2.00;;;11.50;99.90;;;;;;5419762;26;19994;-91
2024/04/13 05:22:04;;;;;;;6.55;1.70;;;11.50;99.90;;;;;;5414991;26;20035;-91
2024/04/13 05:24:32;;;;;;;8.03;2.40;;;11.60;99.90;;;;;;5429543;26;20009;-91
2024/04/13 05:26:59;;;;;;;8.88;4.45;;;11.60;99.90;;;;;;5446640;26;20486;-92
2024/04/13 05:29:27;;;;;;;5.82;2.28;;;11.70;99.90;;;;;;5422983;26;20003;-92
2024/04/13 05:31:54;;;;;;;7.53;2.22;;;11.80;99.90;;;;;;5444318;26;20031;-91
2024/04/13 05:34:21;;;;;;;6.40;2.08;;;11.80;99.90;;;;;;5416580;26;20454;-91
2024/04/13 05:36:48;;;;;;;6.57;2.28;;;11.80;99.90;;;;;;5428504;26;20003;-91
2024/04/13 05:39:16;;;;;;;9.57;4.00;;;11.80;99.90;;;;;;5413650;26;20430;-90
2024/04/13 05:41:43;;;;;;;8.63;4.30;;;11.90;99.90;;;;;;5445657;26;20022;-91
2024/04/13 05:44:10;;;;;;;4.60;1.77;;;12.00;99.90;;;;;;5416605;26;19995;-91
2024/04/13 05:46:37;;;;;;;5.97;1.92;;;12.00;99.90;;;;;;5417434;26;19995;-90
2024/04/13 05:49:04;;;;;;;6.07;1.90;;;12.00;99.90;;;;;;5469846;26;20042;-90
2024/04/13 05:51:31;;;;;;;10.43;4.97;;;12.00;99.90;;;;;;5446880;26;20379;-92
2024/04/13 05:53:58;;;;;;;8.90;4.30;;;12.10;99.90;;;;;;5424433;26;19995;-91
2024/04/13 05:56:25;;;;;;;5.22;1.92;;;12.20;99.90;;;;;;5421236;26;20001;-91
2024/04/13 05:58:52;;;;;;;6.45;2.08;;;12.20;99.90;;;;;;5414093;26;19996;-91
2024/04/13 06:01:20;;;;;;;8.68;4.90;;;12.20;99.90;;;;;;5413847;26;20009;-91
2024/04/13 06:03:47;;;;;;;7.20;2.42;;;12.30;99.90;;;;;;5445936;26;20023;-92
2024/04/13 06:06:15;;;;;;;7.00;2.60;;;12.30;99.90;;;;;;5419527;26;19995;-91
2024/04/13 06:08:41;;;;;;;7.13;2.30;;;12.30;99.90;;;;;;5442558;26;20006;-91
2024/04/13 06:11:08;;;;;;;8.48;2.45;;;12.30;99.90;;;;;;5444967;26;20023;-91
2024/04/13 06:13:35;;;;;;;6.43;2.60;;;12.40;99.90;;;;;;5416139;26;20028;-91
2024/04/13 06:16:03;;;;;;;5.40;1.92;;;12.40;99.90;;;;;;5415821;26;19994;-90
2024/04/13 06:18:30;;;;;;;6.47;2.10;;;12.40;99.90;;;;;;5423968;26;19995;-91
2024/04/13 06:20:57;;;;;;;9.80;4.97;;;12.50;99.90;;;;;;5410426;26;20021;-91
2024/04/13 06:23:24;;;;;;;5.80;1.98;;;12.60;99.90;;;;;;5425765;26;20490;-91
2024/04/13 06:25:51;;;;;;;6.97;2.78;;;12.60;99.90;;;;;;5416575;26;20017;-90
2024/04/13 06:28:20;;;;;;;7.93;2.47;;;12.60;99.90;;;;;;5413810;26;20455;-91
2024/04/13 06:30:48;;;;;;;6.45;2.55;;;12.70;99.90;;;;;;5443850;26;20050;-91
2024/04/13 06:33:16;;;;;;;8.15;2.80;;;12.70;99.90;;;;;;5443670;26;20013;-90
2024/04/13 06:35:50;;;;;;;7.78;2.83;;;12.80;99.90;;;;;;5412240;26;19995;-92
2024/04/13 06:38:23;;;;;;;10.32;5.15;;;12.80;99.90;;;;;;5444226;26;20003;-90
2024/04/13 06:40:51;;;;;;;6.68;2.60;;;12.90;99.90;;;;;;5463898;26;19995;-91
2024/04/13 06:43:18;;;;;;;8.02;1.73;;;13.00;99.90;;;;;;5414590;26;20013;-91
2024/04/13 06:45:48;;;;;;;7.32;2.67;;;13.00;99.90;;;;;;5444182;26;20482;-91
2024/04/13 06:48:15;;;;;;;8.60;4.72;;;13.00;99.90;;;;;;5443520;26;20386;-91
2024/04/13 06:50:44;;;;;;;8.00;2.83;;;13.10;99.90;;;;;;5444006;26;20031;-91
2024/04/13 06:53:11;;;;;;;7.47;2.00;;;13.10;99.90;;;;;;5412902;26;20009;-92
2024/04/13 06:55:38;;;;;;;6.18;1.83;;;13.10;99.90;;;;;;5431037;26;20494;-92
2024/04/13 06:58:05;;;;;;;9.88;2.40;;;13.10;99.90;;;;;;5413382;26;20007;-91
2024/04/13 07:00:32;;;;;;;10.75;3.35;;;13.20;99.90;;;;;;5420761;26;19998;-92
2024/04/13 07:02:58;;;;;;;9.27;3.03;;;13.30;99.90;;;;;;5407838;26;20006;-92
2024/04/13 07:05:25;;;;;;;8.50;3.00;;;13.30;99.90;;;;;;5417881;26;20016;-91
2024/04/13 07:07:52;;;;;;;9.18;4.82;;;13.40;99.90;;;;;;5419210;26;19995;-92
2024/04/13 07:10:20;;;;;;;11.63;5.63;;;13.50;99.90;;;;;;5418874;26;20693;-92
2024/04/13 07:12:46;;;;;;;9.00;4.70;;;13.50;99.90;;;;;;5425994;26;20353;-92
2024/04/13 07:15:13;;;;;;;6.88;3.25;;;13.60;99.90;;;;;;5443635;26;20047;-90
2024/04/13 07:17:40;;;;;;;7.07;2.30;;;13.60;99.90;;;;;;5416169;26;20009;-92
2024/04/13 07:20:08;;;;;;;10.82;5.43;;;13.60;99.90;;;;;;5443314;26;20031;-91
2024/04/13 07:22:35;;;;;;;6.18;2.03;;;13.70;99.90;;;;;;5426314;26;20009;-92
2024/04/13 07:25:02;;;;;;;10.43;5.13;;;13.70;99.90;;;;;;5444335;26;20490;-92
2024/04/13 07:27:29;;;;;;;6.57;2.53;;;13.80;99.90;;;;;;5444321;26;20027;-92
2024/04/13 07:29:56;;;;;;;7.40;2.78;;;13.90;99.90;;;;;;5473254;26;20009;-93
2024/04/13 07:32:23;;;;;;;10.77;5.30;;;14.00;99.90;;;;;;5437561;26;20050;-92
2024/04/13 07:34:50;;;;;;;10.60;5.38;;;14.00;99.90;;;;;;5444258;26;20426;-92
2024/04/13 07:37:17;;;;;;;9.63;5.35;;;14.20;99.90;;;;;;5444135;26;19998;-91
2024/04/13 07:39:44;;;;;;;9.20;4.93;;;14.30;99.90;;;;;;5423879;26;19994;-91
2024/04/13 07:42:11;;;;;;;9.70;5.40;;;14.30;99.90;;;;;;5427800;26;20006;-91
2024/04/13 07:44:38;;;;;;;5.05;2.00;;;14.40;99.90;;;;;;5413744;26;20013;-92
2024/04/13 07:47:05;;;;;;;7.53;2.50;;;14.40;99.90;;;;;;5413281;26;20035;-91
2024/04/13 07:49:32;;;;;;;9.48;5.07;;;14.40;99.90;;;;;;5443432;26;20039;-92
2024/04/13 07:52:01;;;;;;;9.88;4.40;;;14.50;99.90;;;;;;5420267;26;19998;-92
2024/04/13 07:54:28;;;;;;;6.80;2.17;;;14.50;99.90;;;;;;5428414;26;20014;-92
2024/04/13 07:56:55;;;;;;;10.95;4.72;;;14.60;99.90;;;;;;5408888;26;20014;-92
2024/04/13 07:59:22;;;;;;;8.48;2.72;;;14.60;99.90;;;;;;5443087;26;20374;-92
2024/04/13 08:01:49;;;;;;;10.02;4.40;;;14.70;99.90;;;;;;5415156;26;19994;-92
2024/04/13 08:04:17;;;;;;;6.68;2.45;;;14.80;99.90;;;;;;5443628;26;20023;-92
2024/04/13 08:06:43;;;;;;;8.32;4.22;;;14.90;99.90;;;;;;5443976;26;20027;-92
2024/04/13 08:09:09;;;;;;;9.63;3.55;;;15.00;99.90;;;;;;5440191;26;20455;-92
2024/04/13 08:11:35;;;;;;;10.10;4.75;;;15.00;99.90;;;;;;5443948;26;20393;-92
2024/04/13 08:14:02;;;;;;;8.13;2.50;;;15.10;99.90;;;;;;5410672;26;20008;-92
2024/04/13 08:16:28;;;;;;;6.57;2.15;;;15.20;99.90;;;;;;5410788;26;20470;-92
2024/04/13 08:18:53;;;;;;;9.82;4.30;;;15.20;99.90;;;;;;5419521;26;20083;-92
2024/04/13 08:21:19;;;;;;;9.13;4.03;;;15.30;99.90;;;;;;5419012;26;20010;-93
2024/04/13 08:23:45;;;;;;;8.70;2.28;;;15.40;99.90;;;;;;5416692;26;20022;-93
2024/04/13 08:26:11;;;;;;;9.73;4.20;;;15.30;99.90;;;;;;5418072;26;20462;-92
2024/04/13 08:28:36;;;;;;;12.00;4.80;;;15.40;99.90;;;;;;5448154;26;20462;-92
2024/04/13 08:31:04;;;;;;;7.20;2.53;;;15.50;99.90;;;;;;5447285;26;20418;-93
2024/04/13 08:33:30;;;;;;;8.65;3.63;;;15.50;99.90;;;;;;5425280;26;20519;-92
2024/04/13 08:36:08;;;;;;;8.73;2.72;;;15.50;99.90;;;;;;5386014;26;20015;-92
2024/04/13 08:38:34;;;;;;;11.85;4.45;;;15.60;99.90;;;;;;5426678;26;20011;-92
2024/04/13 08:41:06;;;;;;;9.50;4.50;;;15.70;99.90;;;;;;5446866;26;20042;-92
2024/04/13 08:43:33;;;;;;;9.77;4.32;;;15.80;99.90;;;;;;5423734;26;20002;-92
2024/04/13 08:46:09;;;;;;;13.40;2.42;;;15.80;99.90;;;;;;5414451;26;20017;-93
2024/04/13 08:48:38;;;;;;;4.90;1.38;;;15.80;99.90;;;;;;5447595;26;20014;-92
2024/04/13 08:51:07;;;;;;;9.52;4.40;;;15.80;99.90;;;;;;5417527;26;20043;-93
2024/04/13 08:53:34;;;;;;;9.07;2.78;;;15.90;99.90;;;;;;5420254;26;20018;-93
2024/04/13 08:56:02;;;;;;;11.25;4.63;;;16.00;99.90;;;;;;5469720;26;20003;-92
2024/04/13 08:58:28;;;;;;;8.95;4.20;;;16.00;99.90;;;;;;5421976;26;20369;-91
2024/04/13 09:00:59;;;;;;;12.23;4.57;;;16.20;99.90;;;;;;5422820;26;20350;-91
2024/04/13 09:03:27;;;;;;;10.65;4.10;;;16.20;99.90;;;;;;5447700;26;20003;-93
2024/04/13 09:05:53;;;;;;;6.90;2.40;;;16.30;99.90;;;;;;5415343;26;20052;-92
2024/04/13 09:08:22;;;;;;;12.45;4.57;;;16.30;99.90;;;;;;5413473;26;20018;-93
2024/04/13 09:10:51;;;;;;;9.27;4.30;;;16.40;99.90;;;;;;5432241;26;20011;-92
2024/04/13 09:13:17;;;;;;;9.57;4.35;;;16.50;99.90;;;;;;5430272;26;20006;-92
2024/04/13 09:15:44;;;;;;;9.02;4.07;;;16.50;99.90;;;;;;5419145;26;20023;-92
2024/04/13 09:18:11;;;;;;;7.90;2.70;;;16.60;99.90;;;;;;5446538;26;20007;-92
2024/04/13 09:20:37;;;;;;;6.75;2.78;;;16.60;99.90;;;;;;5424051;26;20029;-93
2024/04/13 09:23:04;;;;;;;8.55;4.13;;;16.70;99.90;;;;;;5415037;26;20015;-93
2024/04/13 09:25:31;;;;;;;9.80;3.83;;;16.80;99.90;;;;;;5414588;26;20007;-93
2024/04/13 09:27:59;;;;;;;8.05;3.42;;;16.90;99.90;;;;;;5475586;26;20352;-93
2024/04/13 09:30:24;;;;;;;10.35;3.72;;;17.00;99.90;;;;;;5437023;26;20678;-92
2024/04/13 09:33:03;;;;;;;8.95;3.75;;;17.10;99.90;;;;;;5415408;26;20007;-92
2024/04/13 09:35:30;;;;;;;10.30;3.97;;;17.10;99.90;;;;;;5447110;26;20011;-93
2024/04/13 09:37:57;;;;;;;9.93;3.92;;;17.20;99.90;;;;;;5426839;26;20366;-92
2024/04/13 09:40:23;;;;;;;10.25;4.38;;;17.30;99.90;;;;;;5413795;26;20007;-93
2024/04/13 09:42:49;;;;;;;11.32;2.88;;;17.30;99.90;;;;;;5419255;26;20003;-93
2024/04/13 09:45:15;;;;;;;8.85;3.70;;;17.40;99.90;;;;;;5413931;26;20585;-93
2024/04/13 09:47:41;;;;;;;7.97;3.15;;;17.50;99.90;;;;;;5416521;26;20007;-93
2024/04/13 09:50:07;;;;;;;8.85;3.10;;;17.50;99.90;;;;;;5413942;26;20046;-93
2024/04/13 09:52:33;;;;;;;5.05;2.13;;;17.70;99.90;;;;;;5413515;26;20084;-93
2024/04/13 09:55:00;;;;;;;8.68;3.35;;;17.70;99.90;;;;;;5382254;26;20363;-92
2024/04/13 09:57:26;;;;;;;8.77;3.15;;;17.80;99.90;;;;;;5444813;26;20039;-93
2024/04/13 09:59:53;;;;;;;8.90;3.38;;;17.90;99.90;;;;;;5468555;26;20358;-92
2024/04/13 10:02:20;;;;;;;6.53;2.38;;;17.90;99.90;;;;;;5445511;26;20127;-92
2024/04/13 10:04:46;;;;;;;9.82;3.50;;;18.00;99.90;;;;;;5445422;26;20017;-92
2024/04/13 10:07:13;;;;;;;8.48;3.15;;;18.10;99.90;;;;;;5421278;26;20530;-93
2024/04/13 10:09:43;;;;;;;8.32;3.00;;;18.10;99.90;;;;;;5414279;26;20015;-93
2024/04/13 10:12:15;;;;;;;8.23;2.78;;;18.20;99.90;;;;;;5419955;26;20361;-92
2024/04/13 10:14:43;;;;;;;;;;;18.20;99.90;;;;;;5418362;26;20018;-92
2024/04/13 10:17:09;;;;;;;7.95;3.10;;;18.30;99.90;;;;;;5416927;26;19931;-92
2024/04/13 10:19:37;;;;;;;8.88;3.38;;;18.30;99.90;;;;;;5414271;26;20029;-93
2024/04/13 10:22:05;;;;;;;8.15;3.05;;;18.40;99.90;;;;;;5434140;26;20423;-93
2024/04/13 10:24:31;;;;;;;8.43;3.20;;;18.40;99.90;;;;;;5446147;26;20007;-93
2024/04/13 10:27:11;;;;;;;8.20;3.20;;;18.50;99.90;;;;;;5413933;26;20039;-93
2024/04/13 10:29:40;;;;;;;8.35;3.40;;;18.60;99.90;;;;;;5445285;26;20079;-93
2024/04/13 10:32:16;;;;;;;8.77;3.25;;;18.70;99.90;;;;;;5414732;26;20076;-93
2024/04/13 10:34:43;;;;;;;7.85;3.40;;;18.80;99.90;;;;;;5429207;26;20007;-93
2024/04/13 10:37:32;;;;;;;8.10;3.30;;;18.80;99.90;;;;;;5417879;26;20458;-93
2024/04/13 10:40:00;;;;;;;9.25;3.70;;;18.90;99.90;;;;;;5415331;26;20035;-92
2024/04/13 10:42:39;;;;;;;8.23;3.00;;;18.90;99.90;;;;;;5415490;26;20002;-93
2024/04/13 10:45:17;;;;;;;8.50;3.22;;;19.00;99.90;;;;;;5442356;26;20461;-92
2024/04/13 10:47:44;;;;;;;9.10;3.30;;;19.20;99.90;;;;;;5415897;26;20010;-93
2024/04/13 10:50:13;;;;;;;9.35;3.20;;;19.20;99.90;;;;;;5386723;26;20003;-92
2024/04/13 10:52:40;;;;;;;8.88;3.65;;;19.20;99.90;;;;;;5412078;26;20541;-93
2024/04/13 10:55:06;;;;;;;8.57;3.70;;;19.30;99.90;;;;;;5415152;26;20018;-93
2024/04/13 10:57:32;;;;;;;7.38;3.28;;;19.30;99.90;;;;;;5413714;26;20014;-93
2024/04/13 10:59:58;;;;;;;7.93;3.50;;;19.40;99.90;;;;;;5428196;26;20006;-93
2024/04/13 11:02:24;;;;;;;7.82;3.38;;;19.40;99.90;;;;;;5412274;26;20940;-93
2024/04/13 11:04:49;;;;;;;8.63;3.63;;;19.40;99.90;;;;;;5421658;26;20002;-93
2024/04/13 11:07:16;;;;;;;8.13;3.58;;;19.50;99.90;;;;;;5417519;26;20013;-93
2024/04/13 11:09:42;;;;;;;9.32;3.70;;;19.60;99.90;;;;;;5412202;26;20029;-93
2024/04/13 11:12:09;;;;;;;9.27;3.70;;;19.60;99.90;;;;;;5416646;26;20076;-93
2024/04/13 11:14:35;;;;;;;8.48;3.67;;;19.70;99.90;;;;;;5445370;26;20003;-93
2024/04/13 11:17:01;;;;;;;8.57;3.42;;;19.80;99.90;;;;;;5412518;26;20370;-93
2024/04/13 11:19:27;;;;;;;7.53;3.85;;;19.80;99.90;;;;;;5444650;26;20014;-93
2024/04/13 11:21:54;;;;;;;10.85;4.55;;;20.00;99.90;;;;;;5409591;26;20088;-93
2024/04/13 11:24:20;;;;;;;8.45;4.40;;;20.10;99.90;;;;;;5413982;26;20052;-94
2024/04/13 11:26:46;;;;;;;8.38;3.97;;;20.10;99.90;;;;;;5411933;26;20015;-94
2024/04/13 11:29:12;;;;;;;8.77;4.43;;;20.20;99.90;;;;;;5445184;26;20079;-93
2024/04/13 11:31:39;;;;;;;8.38;4.32;;;20.20;99.90;;;;;;5445711;26;20482;-94
2024/04/13 11:34:05;;;;;;;9.55;5.20;;;20.30;99.90;;;;;;5414942;26;20018;-93
2024/04/13 11:36:31;;;;;;;9.60;4.70;;;20.40;99.90;;;;;;5413460;26;20350;-94
2024/04/13 11:39:01;;;;;;;10.45;4.88;;;20.50;99.90;;;;;;5418532;26;20003;-93
2024/04/13 11:41:28;;;;;;;8.75;4.72;;;20.50;99.90;;;;;;5415766;26;20003;-92
2024/04/13 11:43:55;;;;;;;9.15;4.85;;;20.50;99.50;;;;;;5443922;26;20019;-92
2024/04/13 11:46:21;;;;;;;8.82;4.82;;;20.50;99.90;;;;;;5418227;26;20044;-93
2024/04/13 11:48:48;;;;;;;10.18;5.30;;;20.50;99.90;;;;;;5395615;26;20007;-92
2024/04/13 11:51:14;;;;;;;9.95;5.10;;;20.40;99.90;;;;;;5413508;26;20014;-93
2024/04/13 11:53:40;;;;;;;10.65;5.05;;;20.50;99.90;;;;;;5421530;26;20014;-92
2024/04/13 11:56:07;;;;;;;9.80;5.20;;;20.50;99.90;;;;;;5448539;26;20041;-93
2024/04/13 11:58:33;;;;;;;12.77;5.60;;;20.50;99.90;;;;;;5393783;26;20059;-92
2024/04/13 12:00:59;;;;;;;10.68;5.05;;;20.50;99.90;;;;;;5415650;26;20003;-93
2024/04/13 12:03:25;;;;;;;9.02;4.88;;;20.60;99.90;;;;;;5448193;26;20015;-93
2024/04/13 12:05:51;;;;;;;10.65;6.05;;;20.60;99.90;;;;;;5417316;26;20083;-92
2024/04/13 12:08:17;;;;;;;10.02;5.85;;;20.60;99.90;;;;;;5416418;26;20011;-92
2024/04/13 12:10:42;;;;;;;10.18;5.70;;;20.70;99.90;;;;;;5422071;26;20021;-93
2024/04/13 12:13:08;;;;;;;10.45;6.10;;;20.80;99.90;;;;;;5444075;26;20014;-94
2024/04/13 12:15:34;;;;;;;10.45;6.10;;;20.90;99.90;;;;;;5418961;26;20017;-93
2024/04/13 12:18:00;;;;;;;11.48;6.28;;;20.90;99.90;;;;;;5428652;26;20011;-93
2024/04/13 12:20:25;;;;;;;13.52;6.75;;;21.00;98.40;;;;;;5447834;26;20020;-93
2024/04/13 12:22:52;;;;;;;10.98;6.30;;;21.10;98.80;;;;;;5447774;26;20007;-93
2024/04/13 12:25:18;;;;;;;13.20;7.18;;;21.20;99.60;;;;;;5448331;26;20021;-93
2024/04/13 12:27:44;;;;;;;11.00;6.70;;;21.30;99.30;;;;;;5447529;26;20007;-93
2024/04/13 12:30:09;;;;;;;10.88;7.70;;;21.40;98.90;;;;;;5417096;26;20010;-92
2024/04/13 12:32:35;;;;;;;13.95;7.85;;;21.40;98.20;;;;;;5416562;26;20461;-92
2024/04/13 12:35:07;;;;;;;12.55;7.65;;;21.50;97.50;;;;;;5476249;26;20353;-92
2024/04/13 12:37:33;;;;;;;11.85;7.75;;;21.50;96.40;;;;;;5416554;26;20002;-92
2024/04/13 12:40:00;;;;;;;13.15;7.72;;;21.60;97.30;;;;;;5417949;26;20039;-94
2024/04/13 12:42:28;;;;;;;11.82;7.18;;;21.70;98.30;;;;;;5447027;26;20021;-93
2024/04/13 12:44:53;;;;;;;11.23;7.25;;;21.80;96.90;;;;;;5445927;26;20002;-93
2024/04/13 12:47:19;;;;;;;12.07;7.10;;;21.80;94.70;;;;;;5415373;26;20518;-93